Time;durP1;ratioP1;P1;durP2;ratioP2;P2;SDS_P1;SDS_P2;PMS_P1;PMS_P2;Temp;Humidity;BMP_temperature;BMP_pressure;BME280_temperature;BME280_humidity;BME280_pressure;Samples;Min_cycle;Max_cycle;Signal;HPM_P1;HPM_P2
2022/07/08 00:01:05;;;;;;;3.25;1.02;;;18.10;99.90;;;;;;4125078;28;20034;-68
2022/07/08 00:03:06;;;;;;;2.92;0.95;;;18.10;99.90;;;;;;4120300;28;20035;-68
2022/07/08 00:05:07;;;;;;;3.40;0.80;;;18.10;99.90;;;;;;4135190;28;20049;-69
2022/07/08 00:07:08;;;;;;;4.63;1.27;;;18.10;99.90;;;;;;4120910;28;20470;-68
2022/07/08 00:09:10;;;;;;;2.75;0.95;;;18.10;99.90;;;;;;4120914;28;20027;-68
2022/07/08 00:11:11;;;;;;;5.07;1.33;;;18.10;99.90;;;;;;4127944;28;20470;-68
2022/07/08 00:13:12;;;;;;;4.13;1.00;;;18.10;99.90;;;;;;4121046;28;20039;-68
2022/07/08 00:15:13;;;;;;;4.40;1.20;;;18.10;99.90;;;;;;4122238;28;20038;-69
2022/07/08 00:17:14;;;;;;;4.53;1.20;;;18.10;99.90;;;;;;4120529;28;20047;-68
2022/07/08 00:19:15;;;;;;;3.65;0.90;;;18.10;99.90;;;;;;4120628;28;20121;-68
2022/07/08 00:21:16;;;;;;;4.90;1.35;;;18.10;99.90;;;;;;4125593;28;20073;-68
2022/07/08 00:23:16;;;;;;;2.42;1.05;;;18.10;99.90;;;;;;4120678;28;20061;-68
2022/07/08 00:25:17;;;;;;;3.60;0.80;;;18.10;99.90;;;;;;4122835;28;20042;-68
2022/07/08 00:27:18;;;;;;;4.47;1.38;;;18.10;99.90;;;;;;4120801;28;20141;-68
2022/07/08 00:29:18;;;;;;;2.67;0.90;;;18.10;99.90;;;;;;4120754;28;20050;-68
2022/07/08 00:31:19;;;;;;;8.65;1.67;;;18.10;99.90;;;;;;4127582;28;20041;-68
2022/07/08 00:33:19;;;;;;;4.90;1.20;;;18.10;99.90;;;;;;4120714;28;20030;-68
2022/07/08 00:35:20;;;;;;;4.55;1.33;;;18.10;99.90;;;;;;4122738;28;20026;-68
2022/07/08 00:37:21;;;;;;;4.50;1.10;;;18.00;99.90;;;;;;4120535;28;20029;-68
2022/07/08 00:39:21;;;;;;;5.72;1.45;;;18.10;99.90;;;;;;4115786;28;20054;-68
2022/07/08 00:41:22;;;;;;;2.72;1.08;;;18.10;99.90;;;;;;4124615;28;20493;-69
2022/07/08 00:43:26;;;;;;;4.40;1.20;;;18.10;99.90;;;;;;4129231;28;20126;-68
2022/07/08 00:45:27;;;;;;;2.97;1.25;;;18.10;99.90;;;;;;4122445;28;21086;-68
2022/07/08 00:47:27;;;;;;;2.95;1.05;;;18.00;99.90;;;;;;4122202;28;20038;-69
2022/07/08 00:49:28;;;;;;;4.75;1.42;;;18.00;99.90;;;;;;4120450;28;20113;-68
2022/07/08 00:51:29;;;;;;;3.95;1.10;;;18.00;99.90;;;;;;4123234;28;20566;-68
2022/07/08 00:53:30;;;;;;;5.80;1.52;;;18.00;99.90;;;;;;4120460;28;20026;-69
2022/07/08 00:55:31;;;;;;;4.97;1.00;;;18.10;99.90;;;;;;4121427;28;20045;-68
2022/07/08 00:57:33;;;;;;;6.05;1.77;;;18.00;99.90;;;;;;4121611;28;20034;-68
2022/07/08 00:59:34;;;;;;;5.53;1.33;;;18.00;99.90;;;;;;4120633;28;20054;-68
2022/07/08 01:01:35;;;;;;;8.15;1.45;;;17.90;99.90;;;;;;4123822;28;20043;-68
2022/07/08 01:03:35;;;;;;;9.98;2.13;;;17.90;99.90;;;;;;4120700;28;20047;-68
2022/07/08 01:05:36;;;;;;;5.25;1.33;;;17.90;99.90;;;;;;4119825;28;20030;-68
2022/07/08 01:07:37;;;;;;;3.40;1.00;;;17.80;99.90;;;;;;4121138;28;20084;-68
2022/07/08 01:09:37;;;;;;;6.93;1.70;;;17.80;99.90;;;;;;4120493;28;20042;-68
2022/07/08 01:11:38;;;;;;;2.90;1.05;;;17.80;99.90;;;;;;4123400;28;20031;-68
2022/07/08 01:13:39;;;;;;;5.50;1.70;;;17.80;99.90;;;;;;4120451;28;20042;-68
2022/07/08 01:15:40;;;;;;;7.00;1.38;;;17.80;99.90;;;;;;4123749;28;20481;-68
2022/07/08 01:17:42;;;;;;;2.60;1.05;;;17.80;99.90;;;;;;4123469;28;20046;-68
2022/07/08 01:19:42;;;;;;;7.38;1.55;;;17.80;99.90;;;;;;4123748;28;20110;-68
2022/07/08 01:21:44;;;;;;;3.45;1.17;;;17.80;99.90;;;;;;4127614;28;20446;-68
2022/07/08 01:23:44;;;;;;;2.72;1.08;;;17.90;99.90;;;;;;4125180;28;20104;-67
2022/07/08 01:25:46;;;;;;;4.78;1.42;;;17.90;99.90;;;;;;4122783;28;20039;-68
2022/07/08 01:27:47;;;;;;;3.53;1.08;;;17.90;99.90;;;;;;4126147;28;20031;-68
2022/07/08 01:29:47;;;;;;;2.70;0.90;;;17.80;99.90;;;;;;4123539;28;20501;-68
2022/07/08 01:31:58;;;;;;;3.40;1.20;;;17.90;99.90;;;;;;4128487;28;20054;-68
2022/07/08 01:33:59;;;;;;;3.03;1.15;;;17.90;99.90;;;;;;4122964;28;20128;-69
2022/07/08 01:35:59;;;;;;;3.50;1.00;;;17.90;99.90;;;;;;4122746;28;20058;-68
2022/07/08 01:38:01;;;;;;;7.45;1.13;;;17.90;99.90;;;;;;4126025;28;20098;-68
2022/07/08 01:40:02;;;;;;;3.60;1.05;;;17.90;99.90;;;;;;4122962;28;20039;-68
2022/07/08 01:42:02;;;;;;;4.38;1.35;;;17.90;99.90;;;;;;4129658;28;20041;-68
2022/07/08 01:44:03;;;;;;;5.20;1.20;;;17.90;99.90;;;;;;4122753;28;20069;-68
2022/07/08 01:46:04;;;;;;;3.42;1.20;;;17.90;99.90;;;;;;4122680;28;20523;-68
2022/07/08 01:48:05;;;;;;;4.80;1.15;;;17.90;99.90;;;;;;4124574;28;20046;-68
2022/07/08 01:50:06;;;;;;;5.95;1.50;;;17.90;99.90;;;;;;4122005;28;20031;-69
2022/07/08 01:52:07;;;;;;;3.20;1.08;;;18.00;99.90;;;;;;4129528;28;20037;-68
2022/07/08 01:54:08;;;;;;;3.05;1.27;;;17.90;99.90;;;;;;4122899;28;20037;-68
2022/07/08 01:56:08;;;;;;;6.53;1.40;;;17.90;99.90;;;;;;4122448;28;20114;-68
2022/07/08 01:58:09;;;;;;;4.70;1.52;;;17.90;99.90;;;;;;4126531;28;20035;-69
2022/07/08 02:00:10;;;;;;;6.05;1.50;;;17.90;99.90;;;;;;4122989;28;20038;-69
2022/07/08 02:02:12;;;;;;;8.93;1.90;;;17.80;99.90;;;;;;4130648;28;20037;-68
2022/07/08 02:04:13;;;;;;;4.85;1.67;;;17.80;99.90;;;;;;4131820;28;20482;-68
2022/07/08 02:06:13;;;;;;;3.78;1.70;;;17.80;99.90;;;;;;4131152;28;20038;-68
2022/07/08 02:08:14;;;;;;;3.85;1.23;;;17.80;99.90;;;;;;4131683;28;20046;-68
2022/07/08 02:10:14;;;;;;;2.97;1.08;;;17.80;99.90;;;;;;4130403;28;20501;-69
2022/07/08 02:12:21;;;;;;;3.58;1.00;;;17.80;99.90;;;;;;4130830;28;20042;-68
2022/07/08 02:14:22;;;;;;;3.38;1.08;;;17.80;99.90;;;;;;4131202;28;20057;-68
2022/07/08 02:16:22;;;;;;;3.20;1.20;;;17.80;99.90;;;;;;4130774;28;20050;-68
2022/07/08 02:18:23;;;;;;;3.33;1.20;;;17.80;99.90;;;;;;4131195;28;20030;-68
2022/07/08 02:20:24;;;;;;;2.75;1.00;;;17.80;99.90;;;;;;4127868;28;20042;-68
2022/07/08 02:22:26;;;;;;;5.07;1.35;;;17.80;99.90;;;;;;4131177;28;20030;-68
2022/07/08 02:24:27;;;;;;;5.90;1.40;;;17.80;99.90;;;;;;4131333;28;20027;-68
2022/07/08 02:26:27;;;;;;;4.05;1.27;;;17.80;99.90;;;;;;4129931;28;20056;-68
2022/07/08 02:28:28;;;;;;;7.25;1.80;;;17.70;99.90;;;;;;4131365;28;20030;-69
2022/07/08 02:30:29;;;;;;;7.45;2.10;;;17.70;99.90;;;;;;4129916;28;20493;-68
2022/07/08 02:32:29;;;;;;;8.38;1.52;;;17.70;99.90;;;;;;4131089;28;20363;-68
2022/07/08 02:34:30;;;;;;;4.47;1.10;;;17.70;99.90;;;;;;4131485;28;20030;-68
2022/07/08 02:36:30;;;;;;;4.32;1.67;;;17.70;99.90;;;;;;4130617;28;20045;-68
2022/07/08 02:38:31;;;;;;;3.83;1.20;;;17.70;99.90;;;;;;4130993;28;20035;-68
2022/07/08 02:40:31;;;;;;;3.17;1.13;;;17.70;99.90;;;;;;4129721;28;20042;-68
2022/07/08 02:42:32;;;;;;;4.78;1.60;;;17.70;99.90;;;;;;4131197;28;20038;-68
2022/07/08 02:44:33;;;;;;;4.88;1.80;;;17.70;99.90;;;;;;4130723;28;20057;-68
2022/07/08 02:46:34;;;;;;;4.15;1.40;;;17.70;99.90;;;;;;4130486;28;20109;-68
2022/07/08 02:48:35;;;;;;;8.73;1.85;;;17.70;99.90;;;;;;4130707;28;20038;-69
2022/07/08 02:50:35;;;;;;;7.93;1.80;;;17.60;99.90;;;;;;4127665;28;20049;-68
2022/07/08 02:52:36;;;;;;;7.95;1.88;;;17.60;99.90;;;;;;4131086;28;20038;-68
2022/07/08 02:54:36;;;;;;;7.38;1.58;;;17.50;99.90;;;;;;4130943;28;20038;-68
2022/07/08 02:56:37;;;;;;;4.20;1.50;;;17.50;99.90;;;;;;4130305;28;20030;-68
2022/07/08 02:58:38;;;;;;;4.05;1.42;;;17.60;99.90;;;;;;4130711;28;20470;-68
2022/07/08 03:00:39;;;;;;;7.90;1.45;;;17.50;99.90;;;;;;4128790;28;20573;-69
2022/07/08 03:02:39;;;;;;;5.53;1.60;;;17.50;99.90;;;;;;4130824;28;20034;-68
2022/07/08 03:04:40;;;;;;;5.97;1.58;;;17.50;99.90;;;;;;4130346;28;20042;-68
2022/07/08 03:06:40;;;;;;;4.93;1.50;;;17.50;99.90;;;;;;4129996;28;20030;-69
2022/07/08 03:08:41;;;;;;;3.97;1.20;;;17.40;99.90;;;;;;4129545;28;20058;-68
2022/07/08 03:10:42;;;;;;;4.45;1.67;;;17.40;99.90;;;;;;4121640;28;20038;-68
2022/07/08 03:12:43;;;;;;;4.43;1.40;;;17.40;99.90;;;;;;4130125;28;20054;-68
2022/07/08 03:14:43;;;;;;;3.17;1.20;;;17.40;99.90;;;;;;4124843;28;20035;-69
2022/07/08 03:16:44;;;;;;;6.15;1.52;;;17.40;99.90;;;;;;4120718;28;20027;-68
2022/07/08 03:18:44;;;;;;;7.68;1.40;;;17.40;99.90;;;;;;4123037;28;20057;-68
2022/07/08 03:20:45;;;;;;;6.90;1.65;;;17.40;99.90;;;;;;4123971;28;20564;-68
2022/07/08 03:22:46;;;;;;;6.40;1.92;;;17.40;99.90;;;;;;4121787;28;20046;-69
2022/07/08 03:24:46;;;;;;;3.90;1.30;;;17.40;99.90;;;;;;4126809;28;20042;-68
2022/07/08 03:26:47;;;;;;;3.60;1.30;;;17.40;99.90;;;;;;4125928;28;20041;-68
2022/07/08 03:28:47;;;;;;;8.13;1.65;;;17.30;99.90;;;;;;4124827;28;20085;-69
2022/07/08 03:30:48;;;;;;;6.25;1.50;;;17.30;99.90;;;;;;4124159;28;20034;-68
2022/07/08 03:32:49;;;;;;;6.93;1.45;;;17.30;99.90;;;;;;4130254;28;20498;-68
2022/07/08 03:34:50;;;;;;;8.70;1.83;;;17.30;99.90;;;;;;4130241;28;20034;-68
2022/07/08 03:36:50;;;;;;;4.70;1.45;;;17.20;99.90;;;;;;4129725;28;20121;-69
2022/07/08 03:38:51;;;;;;;5.32;1.38;;;17.30;99.90;;;;;;4130153;28;20547;-68
2022/07/08 03:43:10;;;;;;;5.40;1.70;;;17.20;99.90;;;;;;4129846;28;20391;-68
2022/07/08 03:45:11;;;;;;;3.65;1.30;;;17.10;99.90;;;;;;4129260;28;20046;-71
2022/07/08 03:47:12;;;;;;;4.18;1.45;;;17.20;99.90;;;;;;4130109;28;20035;-68
2022/07/08 03:49:12;;;;;;;5.18;1.55;;;17.20;99.90;;;;;;4129944;28;20398;-69
2022/07/08 03:51:14;;;;;;;2.80;1.40;;;17.20;99.90;;;;;;4126514;28;20050;-68
2022/07/08 03:53:15;;;;;;;3.67;1.20;;;17.20;99.90;;;;;;4130130;28;20435;-68
2022/07/08 03:55:15;;;;;;;4.13;1.20;;;17.10;99.90;;;;;;4129292;28;20034;-69
2022/07/08 03:57:16;;;;;;;5.90;1.52;;;17.20;99.90;;;;;;4130121;28;20514;-69
2022/07/08 03:59:16;;;;;;;3.50;1.15;;;17.10;99.90;;;;;;4130032;28;20405;-68
2022/07/08 04:01:17;;;;;;;8.35;2.00;;;17.10;99.90;;;;;;4127846;28;20062;-68
2022/07/08 04:03:18;;;;;;;4.78;1.40;;;17.10;99.90;;;;;;4129383;28;20022;-68
2022/07/08 04:05:19;;;;;;;7.53;1.80;;;17.10;99.90;;;;;;4129160;28;20076;-68
2022/07/08 04:07:19;;;;;;;12.25;2.17;;;17.10;99.90;;;;;;4129935;28;20058;-68
2022/07/08 04:09:20;;;;;;;4.20;1.30;;;17.10;99.90;;;;;;4130135;28;20052;-68
2022/07/08 04:11:20;;;;;;;2.72;1.40;;;17.10;99.90;;;;;;4125323;28;20073;-68
2022/07/08 04:13:23;;;;;;;8.52;1.48;;;17.10;99.90;;;;;;4129669;28;20038;-68
2022/07/08 04:15:24;;;;;;;4.50;1.48;;;17.10;99.90;;;;;;4128965;28;20402;-68
2022/07/08 04:17:24;;;;;;;4.85;1.50;;;17.10;99.90;;;;;;4129549;28;20027;-68
2022/07/08 04:19:25;;;;;;;3.38;1.40;;;17.10;99.90;;;;;;4128805;28;20525;-68
2022/07/08 04:21:25;;;;;;;15.95;2.28;;;17.20;99.90;;;;;;4126964;28;20029;-69
2022/07/08 04:23:26;;;;;;;4.15;1.40;;;17.20;99.90;;;;;;4129248;28;20050;-68
2022/07/08 04:25:27;;;;;;;6.72;1.77;;;17.20;99.90;;;;;;4128964;28;20026;-68
2022/07/08 04:27:28;;;;;;;5.40;1.70;;;17.20;99.90;;;;;;4129777;28;20077;-68
2022/07/08 04:29:28;;;;;;;7.05;1.58;;;17.20;99.90;;;;;;4128517;28;20030;-68
2022/07/08 04:31:29;;;;;;;8.15;1.77;;;17.20;99.90;;;;;;4126337;28;20046;-69
2022/07/08 04:33:29;;;;;;;3.40;1.38;;;17.20;99.90;;;;;;4128669;28;20493;-69
2022/07/08 04:35:30;;;;;;;6.72;1.90;;;17.20;99.90;;;;;;4128628;28;20091;-68
2022/07/08 04:37:31;;;;;;;4.70;1.45;;;17.10;99.90;;;;;;4129279;28;20050;-69
2022/07/08 04:39:31;;;;;;;6.00;1.48;;;17.10;99.90;;;;;;4127710;28;20034;-68
2022/07/08 04:41:32;;;;;;;5.28;1.25;;;17.10;99.90;;;;;;4126156;28;20382;-68
2022/07/08 04:43:32;;;;;;;5.28;1.67;;;17.10;99.90;;;;;;4129286;28;20039;-69
2022/07/08 04:45:33;;;;;;;6.15;1.63;;;17.10;99.90;;;;;;4128492;28;20061;-69
2022/07/08 04:47:34;;;;;;;4.82;1.40;;;17.10;99.90;;;;;;4129445;28;20034;-69
2022/07/08 04:49:34;;;;;;;7.47;1.50;;;17.10;99.90;;;;;;4131200;28;20045;-68
2022/07/08 04:51:35;;;;;;;6.82;1.55;;;17.10;99.90;;;;;;4131499;28;20030;-68
2022/07/08 04:53:35;;;;;;;7.28;1.70;;;17.10;99.90;;;;;;4134364;28;20045;-68
2022/07/08 04:55:36;;;;;;;10.52;2.05;;;17.00;99.90;;;;;;4133566;28;20030;-68
2022/07/08 04:57:36;;;;;;;3.95;1.42;;;17.10;99.90;;;;;;4134466;28;20056;-68
2022/07/08 04:59:37;;;;;;;5.55;1.50;;;17.10;99.90;;;;;;4133079;28;20042;-68
2022/07/08 05:01:38;;;;;;;4.70;1.58;;;17.10;99.90;;;;;;4131076;28;20052;-68
2022/07/08 05:03:38;;;;;;;7.63;1.75;;;17.00;99.90;;;;;;4134764;28;20030;-68
2022/07/08 05:05:39;;;;;;;8.75;1.70;;;17.00;99.90;;;;;;4133985;28;20034;-68
2022/07/08 05:07:39;;;;;;;5.20;1.48;;;17.00;99.90;;;;;;4134416;28;20066;-68
2022/07/08 05:09:40;;;;;;;5.63;1.48;;;17.00;99.90;;;;;;4133258;28;20541;-68
2022/07/08 05:11:41;;;;;;;5.80;1.58;;;17.10;99.90;;;;;;4130326;28;20065;-68
2022/07/08 05:13:42;;;;;;;4.50;1.40;;;17.10;99.90;;;;;;4134443;28;20089;-68
2022/07/08 05:15:43;;;;;;;7.63;1.75;;;17.10;99.90;;;;;;4134330;28;20037;-68
2022/07/08 05:17:44;;;;;;;7.18;1.65;;;17.10;99.90;;;;;;4134582;28;20451;-68
2022/07/08 05:19:45;;;;;;;4.55;1.58;;;17.10;99.90;;;;;;4132986;28;20034;-68
2022/07/08 05:21:45;;;;;;;4.70;1.50;;;17.10;99.90;;;;;;4132289;28;20501;-69
2022/07/08 05:23:46;;;;;;;5.15;1.30;;;17.10;99.90;;;;;;4131122;28;20410;-69
2022/07/08 05:25:46;;;;;;;6.18;1.50;;;17.20;99.90;;;;;;4133304;28;20496;-68
2022/07/08 05:27:47;;;;;;;4.45;1.30;;;17.20;99.90;;;;;;4134000;28;20030;-68
2022/07/08 05:29:48;;;;;;;6.85;1.80;;;17.30;99.90;;;;;;4133193;28;20046;-68
2022/07/08 05:31:53;;;;;;;4.32;1.65;;;17.30;99.90;;;;;;4131770;28;20034;-68
2022/07/08 05:33:54;;;;;;;5.63;1.83;;;17.30;99.90;;;;;;4116866;28;20473;-69
2022/07/08 05:35:55;;;;;;;5.63;1.55;;;17.30;99.90;;;;;;4115496;28;20097;-69
2022/07/08 05:37:55;;;;;;;9.20;1.77;;;17.40;99.90;;;;;;4145481;28;20038;-68
2022/07/08 05:39:56;;;;;;;7.85;1.85;;;17.30;99.90;;;;;;4139341;28;20056;-68
2022/07/08 05:41:57;;;;;;;4.78;1.63;;;17.40;99.90;;;;;;4130979;28;20057;-68
2022/07/08 05:43:58;;;;;;;2.55;1.38;;;17.50;99.90;;;;;;4133871;28;20034;-69
2022/07/08 05:45:58;;;;;;;6.70;2.13;;;17.60;99.90;;;;;;4132742;28;20041;-68
2022/07/08 05:47:59;;;;;;;3.95;1.17;;;17.50;99.90;;;;;;4133927;28;20037;-68
2022/07/08 05:49:59;;;;;;;4.75;1.73;;;17.50;99.90;;;;;;4133831;28;20113;-69
2022/07/08 05:52:01;;;;;;;4.68;1.60;;;17.50;99.90;;;;;;4130921;28;20089;-69
2022/07/08 05:54:02;;;;;;;3.60;1.30;;;17.50;99.90;;;;;;4133799;28;20045;-68
2022/07/08 05:56:03;;;;;;;5.32;1.85;;;17.50;99.90;;;;;;4132640;28;20030;-69
2022/07/08 05:58:03;;;;;;;5.70;1.48;;;17.50;99.90;;;;;;4133260;28;20452;-69
2022/07/08 06:00:05;;;;;;;10.88;2.08;;;17.60;99.90;;;;;;4132156;28;20038;-69
2022/07/08 06:02:06;;;;;;;3.47;1.60;;;17.80;99.90;;;;;;4129911;28;20527;-69
2022/07/08 06:04:07;;;;;;;6.85;1.33;;;18.10;99.90;;;;;;4147207;28;20516;-68
2022/07/08 06:06:07;;;;;;;7.57;1.92;;;18.30;99.90;;;;;;4144950;28;20042;-68
2022/07/08 06:08:08;;;;;;;8.70;2.08;;;18.50;99.90;;;;;;4131245;28;20061;-69
2022/07/08 06:10:09;;;;;;;7.88;1.67;;;18.80;99.90;;;;;;4129584;28;20033;-70
2022/07/08 06:12:10;;;;;;;10.25;1.45;;;19.00;99.90;;;;;;4130633;28;20544;-69
2022/07/08 06:14:10;;;;;;;7.28;1.58;;;19.20;99.90;;;;;;4131260;28;20034;-69
2022/07/08 06:16:11;;;;;;;4.65;1.45;;;19.50;99.90;;;;;;4125347;28;20035;-69
2022/07/08 06:18:11;;;;;;;6.05;1.67;;;19.80;99.90;;;;;;4130260;28;20046;-69
2022/07/08 06:20:14;;;;;;;9.25;2.58;;;20.20;99.90;;;;;;4128572;28;20117;-71
2022/07/08 06:22:14;;;;;;;8.00;1.63;;;20.40;99.90;;;;;;4120997;28;20059;-69
2022/07/08 06:24:15;;;;;;;3.10;1.27;;;20.70;99.90;;;;;;4129325;28;20042;-70
2022/07/08 06:26:17;;;;;;;4.95;1.65;;;21.20;99.90;;;;;;4130113;28;20509;-70
2022/07/08 06:28:18;;;;;;;3.42;0.77;;;21.20;99.90;;;;;;4113779;28;20041;-70
2022/07/08 06:30:18;;;;;;;4.43;1.08;;;21.40;99.90;;;;;;4127307;28;20117;-69
2022/07/08 06:32:19;;;;;;;6.10;1.52;;;21.70;99.90;;;;;;4115283;28;20063;-69
2022/07/08 06:34:19;;;;;;;5.18;1.50;;;21.90;99.90;;;;;;4130040;28;20093;-70
2022/07/08 06:36:20;;;;;;;5.53;1.27;;;22.10;99.90;;;;;;4130389;28;20042;-75
2022/07/08 06:38:21;;;;;;;5.82;1.20;;;22.10;99.90;;;;;;4135906;28;20054;-74
2022/07/08 06:40:21;;;;;;;7.80;1.85;;;21.80;99.90;;;;;;4132402;28;20130;-73
2022/07/08 06:42:22;;;;;;;6.10;1.35;;;21.70;99.90;;;;;;4136153;28;20050;-73
2022/07/08 06:44:23;;;;;;;3.78;0.98;;;21.70;99.90;;;;;;4134486;28;20050;-73
2022/07/08 06:46:24;;;;;;;7.28;1.55;;;21.60;99.90;;;;;;4134137;28;20375;-73
2022/07/08 06:48:25;;;;;;;6.22;1.25;;;21.60;99.90;;;;;;4131211;28;20125;-74
2022/07/08 06:50:25;;;;;;;5.10;1.52;;;21.70;99.90;;;;;;4125415;28;20065;-73
2022/07/08 06:52:26;;;;;;;7.85;1.83;;;21.80;99.90;;;;;;4134836;28;20037;-74
2022/07/08 06:54:36;;;;;;;4.10;1.77;;;21.80;99.90;;;;;;4132861;28;20064;-73
2022/07/08 06:56:36;;;;;;;3.67;1.10;;;21.80;99.90;;;;;;4130118;28;20038;-73
2022/07/08 06:58:37;;;;;;;5.40;1.48;;;21.70;99.90;;;;;;4132701;28;20034;-73
2022/07/08 07:00:37;;;;;;;7.38;1.70;;;21.40;99.90;;;;;;4125490;28;20031;-73
2022/07/08 07:02:38;;;;;;;8.20;1.58;;;21.20;99.90;;;;;;4132669;28;20495;-73
2022/07/08 07:04:39;;;;;;;5.13;1.27;;;20.90;99.90;;;;;;4145588;28;20053;-73
2022/07/08 07:06:39;;;;;;;4.72;1.60;;;21.00;99.90;;;;;;4136497;28;20045;-73
2022/07/08 07:08:40;;;;;;;3.75;0.98;;;21.00;99.90;;;;;;4131021;28;20197;-73
2022/07/08 07:10:40;;;;;;;6.57;1.48;;;20.90;99.90;;;;;;4131362;28;20457;-73
2022/07/08 07:12:41;;;;;;;6.20;1.63;;;20.70;99.90;;;;;;4134160;28;20385;-73
2022/07/08 07:14:42;;;;;;;5.03;1.10;;;20.60;99.90;;;;;;4131520;28;20033;-73
2022/07/08 07:16:42;;;;;;;5.95;1.20;;;20.60;99.90;;;;;;4133944;28;20041;-73
2022/07/08 07:18:43;;;;;;;6.22;1.55;;;20.40;99.90;;;;;;4133038;28;20031;-73
2022/07/08 07:20:44;;;;;;;5.13;1.13;;;20.40;99.90;;;;;;4130958;28;20125;-73
2022/07/08 07:22:46;;;;;;;5.28;1.30;;;20.40;99.90;;;;;;4130408;28;20031;-73
2022/07/08 07:24:47;;;;;;;2.47;0.68;;;20.40;99.90;;;;;;4137855;28;20046;-73
2022/07/08 07:26:47;;;;;;;3.65;1.15;;;20.50;99.90;;;;;;4133004;28;20402;-73
2022/07/08 07:28:48;;;;;;;10.68;1.33;;;20.60;99.90;;;;;;4133967;28;20048;-74
2022/07/08 07:30:49;;;;;;;3.22;1.30;;;20.70;99.90;;;;;;4129277;28;20062;-74
2022/07/08 07:32:49;;;;;;;4.63;1.20;;;20.80;99.90;;;;;;4132447;28;20049;-73
2022/07/08 07:34:50;;;;;;;3.20;1.20;;;20.80;99.90;;;;;;4132383;28;20027;-74
2022/07/08 07:36:50;;;;;;;3.85;1.00;;;21.00;99.90;;;;;;4128224;28;20403;-73
2022/07/08 07:38:51;;;;;;;5.18;1.73;;;21.10;99.90;;;;;;4131755;28;20038;-74
2022/07/08 07:40:51;;;;;;;4.93;1.88;;;21.30;99.90;;;;;;4138573;28;20081;-73
2022/07/08 07:42:52;;;;;;;5.63;1.20;;;21.20;99.90;;;;;;4131421;28;20034;-73
2022/07/08 07:44:53;;;;;;;4.50;1.05;;;21.30;99.10;;;;;;4130700;28;20058;-73
2022/07/08 07:46:53;;;;;;;6.05;1.70;;;21.20;99.90;;;;;;4130424;28;20026;-73
2022/07/08 07:48:54;;;;;;;4.55;1.23;;;21.20;99.40;;;;;;4132529;28;20030;-73
2022/07/08 07:50:54;;;;;;;2.63;0.80;;;21.30;99.20;;;;;;4121607;28;20027;-73
2022/07/08 07:52:55;;;;;;;2.78;1.17;;;21.40;99.90;;;;;;4130249;28;20041;-74
2022/07/08 07:54:55;;;;;;;4.07;1.08;;;21.50;99.00;;;;;;4129777;28;20097;-73
2022/07/08 07:56:56;;;;;;;3.97;0.93;;;21.70;99.40;;;;;;4128908;28;20038;-74
2022/07/08 07:58:57;;;;;;;2.85;0.90;;;21.80;98.70;;;;;;4129991;28;20041;-74
2022/07/08 08:00:58;;;;;;;4.43;1.27;;;21.80;98.00;;;;;;4127909;28;20056;-74
2022/07/08 08:02:58;;;;;;;3.70;1.40;;;21.90;98.10;;;;;;4131180;28;20042;-74
2022/07/08 08:04:59;;;;;;;3.58;1.02;;;22.00;98.10;;;;;;4130020;28;20511;-73
2022/07/08 08:07:00;;;;;;;3.53;1.00;;;22.10;97.90;;;;;;4129151;28;20486;-74
2022/07/08 08:09:00;;;;;;;5.22;1.02;;;22.20;97.20;;;;;;4129879;28;20488;-74
2022/07/08 08:11:02;;;;;;;3.15;1.10;;;22.30;97.70;;;;;;4126654;28;20034;-74
2022/07/08 08:16:08;;;;;;;3.85;0.93;;;22.40;94.70;;;;;;4130721;28;20034;-74
2022/07/08 08:18:08;;;;;;;5.93;1.45;;;22.50;94.80;;;;;;4123090;28;20026;-74
2022/07/08 08:20:11;;;;;;;4.07;0.85;;;22.60;96.20;;;;;;4122888;28;22569;-76
2022/07/08 08:22:11;;;;;;;1.77;0.50;;;22.60;94.60;;;;;;4124744;28;20109;-74
2022/07/08 08:24:12;;;;;;;4.80;1.02;;;22.60;94.60;;;;;;4120482;28;20517;-74
2022/07/08 08:26:12;;;;;;;4.60;1.10;;;22.60;97.10;;;;;;4120326;28;20060;-74
2022/07/08 08:28:13;;;;;;;5.65;1.48;;;22.70;96.10;;;;;;4121005;28;20379;-74
2022/07/08 08:30:15;;;;;;;5.13;1.10;;;22.70;96.20;;;;;;4121696;28;20092;-75
2022/07/08 08:32:16;;;;;;;3.33;1.20;;;22.80;97.00;;;;;;4123456;28;20505;-74
2022/07/08 08:34:17;;;;;;;3.70;1.20;;;22.70;94.70;;;;;;4121110;28;20031;-73
2022/07/08 08:36:17;;;;;;;3.67;1.45;;;22.70;95.40;;;;;;4125597;28;20045;-73
2022/07/08 08:38:18;;;;;;;3.72;1.25;;;22.80;95.10;;;;;;4118302;28;20034;-73
2022/07/08 08:40:21;;;;;;;2.47;0.90;;;22.80;95.40;;;;;;4128692;28;20046;-75
2022/07/08 08:42:23;;;;;;;5.85;1.20;;;22.90;94.70;;;;;;4128031;28;20042;-74
2022/07/08 08:44:23;;;;;;;5.30;1.33;;;22.80;97.10;;;;;;4126048;28;20454;-74
2022/07/08 08:46:24;;;;;;;3.42;1.05;;;22.90;96.00;;;;;;4123412;28;20038;-74
2022/07/08 08:48:26;;;;;;;3.50;1.23;;;23.00;96.90;;;;;;4122881;28;20030;-74
2022/07/08 08:52:51;;;;;;;4.03;1.10;;;23.10;96.20;;;;;;4121314;28;20039;-74
2022/07/08 08:54:54;;;;;;;3.88;1.42;;;23.20;94.20;;;;;;4117755;28;20034;-74
2022/07/08 08:56:56;;;;;;;4.03;1.27;;;23.30;94.70;;;;;;4120834;28;20035;-74
2022/07/08 08:58:59;;;;;;;3.33;1.15;;;23.20;94.20;;;;;;4115682;28;20078;-73
2022/07/08 09:01:00;;;;;;;3.30;1.00;;;23.20;94.30;;;;;;4119634;28;20031;-74
2022/07/08 09:03:01;;;;;;;4.88;1.02;;;23.30;94.10;;;;;;4129442;28;20037;-74
2022/07/08 09:05:02;;;;;;;4.50;1.20;;;23.30;94.20;;;;;;4128911;28;20082;-74
2022/07/08 09:07:03;;;;;;;1.45;0.60;;;23.30;94.70;;;;;;4123661;28;20038;-74
2022/07/08 09:09:03;;;;;;;2.83;0.80;;;23.30;93.70;;;;;;4119542;28;20042;-74
2022/07/08 09:11:04;;;;;;;5.65;1.10;;;23.40;93.60;;;;;;4120268;28;20454;-74
2022/07/08 09:13:06;;;;;;;4.57;0.90;;;23.40;93.60;;;;;;4122046;28;20577;-74
2022/07/08 09:15:07;;;;;;;6.63;1.40;;;23.40;93.30;;;;;;4123491;28;20027;-75
2022/07/08 09:17:19;;;;;;;3.30;1.10;;;23.50;93.60;;;;;;4121158;28;20065;-73
2022/07/08 09:19:19;;;;;;;2.70;0.90;;;23.50;92.50;;;;;;4126911;28;20050;-75
2022/07/08 09:21:27;;;;;;;4.88;1.52;;;23.50;91.70;;;;;;4125002;28;20045;-74
2022/07/08 09:23:30;;;;;;;4.88;1.08;;;23.40;94.60;;;;;;4120983;28;20066;-74
2022/07/08 09:25:32;;;;;;;8.60;1.55;;;23.40;93.90;;;;;;4120339;28;20037;-74
2022/07/08 09:27:32;;;;;;;5.55;1.10;;;23.40;93.80;;;;;;4126113;28;20042;-74
2022/07/08 09:29:33;;;;;;;6.82;1.63;;;23.30;93.90;;;;;;4120202;28;20126;-74
2022/07/08 09:31:35;;;;;;;5.57;1.58;;;23.20;94.80;;;;;;4122228;28;20080;-74
2022/07/08 09:33:36;;;;;;;3.13;1.00;;;23.10;94.30;;;;;;4123963;28;20033;-74
2022/07/08 09:35:38;;;;;;;2.83;0.90;;;23.20;95.10;;;;;;4129471;28;20031;-74
2022/07/08 09:37:39;;;;;;;2.42;0.90;;;23.20;94.90;;;;;;4131844;28;20382;-72
2022/07/08 09:39:39;;;;;;;3.25;1.00;;;23.30;92.70;;;;;;4122861;28;20117;-73
2022/07/08 09:41:47;;;;;;;4.85;1.13;;;23.30;93.60;;;;;;4127670;28;20114;-74
2022/07/08 09:43:49;;;;;;;3.35;1.00;;;23.50;93.20;;;;;;4131745;28;20121;-74
2022/07/08 09:45:49;;;;;;;4.65;1.23;;;23.60;91.90;;;;;;4131016;28;20126;-74
2022/07/08 09:47:51;;;;;;;4.15;1.00;;;23.70;93.70;;;;;;4145640;28;20026;-74
2022/07/08 09:49:52;;;;;;;6.68;1.50;;;23.80;93.60;;;;;;4147713;28;20116;-74
2022/07/08 09:51:53;;;;;;;5.95;1.23;;;23.80;93.60;;;;;;4130262;28;20027;-74
2022/07/08 09:54:08;;;;;;;3.90;0.88;;;23.90;93.20;;;;;;4131418;28;20034;-74
2022/07/08 09:56:10;;;;;;;5.53;1.40;;;24.00;92.70;;;;;;4131245;28;20057;-73
2022/07/08 09:58:12;;;;;;;3.20;1.00;;;24.10;92.80;;;;;;4125980;28;20055;-74
2022/07/08 10:00:14;;;;;;;2.17;0.77;;;24.10;93.00;;;;;;4122024;28;20383;-74
2022/07/08 10:02:15;;;;;;;6.03;1.58;;;24.10;90.80;;;;;;4130069;28;20052;-74
2022/07/08 10:04:17;;;;;;;2.03;0.80;;;24.20;92.30;;;;;;4118691;28;20118;-74
2022/07/08 10:06:17;;;;;;;8.82;1.20;;;24.20;88.70;;;;;;4122952;28;20046;-75
2022/07/08 10:08:18;;;;;;;4.53;1.23;;;24.20;92.40;;;;;;4126394;28;20030;-75
2022/07/08 10:10:19;;;;;;;2.92;1.00;;;24.20;91.60;;;;;;4124271;28;20486;-75
2022/07/08 10:12:20;;;;;;;2.17;1.00;;;24.20;90.90;;;;;;4127620;28;20092;-75
2022/07/08 10:14:22;;;;;;;3.25;1.17;;;24.30;90.70;;;;;;4124919;28;20045;-73
2022/07/08 10:16:22;;;;;;;3.80;1.02;;;24.30;91.90;;;;;;4122318;28;20037;-75
2022/07/08 10:18:45;;;;;;;3.28;1.27;;;24.30;92.50;;;;;;4131288;28;20486;-74
2022/07/08 10:20:52;;;;;;;;;;;24.30;92.00;;;;;;4129211;28;20109;-74
2022/07/08 10:22:59;;;;;;;4.28;1.15;;;24.40;92.10;;;;;;4123118;28;19941;-74
2022/07/08 10:25:02;;;;;;;4.75;1.20;;;24.40;92.70;;;;;;4130910;28;20042;-74
2022/07/08 10:27:03;;;;;;;4.93;1.45;;;24.40;92.50;;;;;;4137274;28;20141;-74
2022/07/08 10:29:08;;;;;;;3.90;1.42;;;24.40;91.80;;;;;;4123700;28;20037;-74
2022/07/08 10:31:22;;;;;;;8.45;1.65;;;24.50;92.20;;;;;;4124737;28;20041;-74
2022/07/08 10:33:25;;;;;;;3.67;1.05;;;24.30;88.70;;;;;;4140677;28;20092;-74
2022/07/08 10:35:25;;;;;;;4.13;1.10;;;24.30;89.90;;;;;;4130560;28;20046;-74
2022/07/08 10:37:48;;;;;;;4.40;1.10;;;24.30;90.50;;;;;;4131477;28;20475;-74
2022/07/08 10:39:48;;;;;;;3.05;1.08;;;24.40;90.40;;;;;;4129663;28;20026;-74